Time;durP1;ratioP1;P1;durP2;ratioP2;P2;SDS_P1;SDS_P2;PMS_P1;PMS_P2;Temp;Humidity;BMP_temperature;BMP_pressure;BME280_temperature;BME280_humidity;BME280_pressure;Samples;Min_cycle;Max_cycle;Signal;HPM_P1;HPM_P2
2021/12/20 00:00:43;;;;;;;10.48;6.97;;;-1.40;99.90;;;;;;5028970;28;20225;-74
2021/12/20 00:03:09;;;;;;;11.50;7.60;;;-1.40;99.90;;;;;;5011539;28;20205;-73
2021/12/20 00:05:35;;;;;;;11.68;7.25;;;-1.50;99.90;;;;;;5029092;28;20161;-74
2021/12/20 00:08:01;;;;;;;11.65;6.30;;;-1.50;99.90;;;;;;5029208;28;20158;-74
2021/12/20 00:10:27;;;;;;;14.48;7.03;;;-1.60;99.90;;;;;;5029202;28;20253;-74
2021/12/20 00:12:53;;;;;;;17.30;7.20;;;-1.50;99.90;;;;;;5029007;28;20253;-74
2021/12/20 00:15:19;;;;;;;12.23;7.75;;;-1.50;99.90;;;;;;5028987;28;20512;-74
2021/12/20 00:17:46;;;;;;;15.70;8.23;;;-1.60;99.90;;;;;;5029120;28;20162;-74
2021/12/20 00:20:13;;;;;;;14.25;6.45;;;-1.60;99.90;;;;;;5029030;28;20166;-74
2021/12/20 00:22:39;;;;;;;12.13;7.47;;;-1.70;99.90;;;;;;5029120;28;20261;-72
2021/12/20 00:25:06;;;;;;;15.15;7.50;;;-1.70;99.90;;;;;;5029063;28;20245;-73
2021/12/20 00:27:32;;;;;;;12.65;7.03;;;-1.70;99.90;;;;;;5028845;28;20647;-73
2021/12/20 00:29:58;;;;;;;8.82;5.43;;;-1.90;99.90;;;;;;5011408;28;20256;-73
2021/12/20 00:32:24;;;;;;;12.32;6.15;;;-1.90;99.90;;;;;;5010845;28;20190;-73
2021/12/20 00:34:50;;;;;;;14.23;7.88;;;-1.70;99.90;;;;;;4991659;28;20659;-73
2021/12/20 00:40:22;;;;;;;10.13;6.53;;;-1.70;99.90;;;;;;5028816;28;20201;-73
2021/12/20 00:42:57;;;;;;;13.13;6.90;;;-1.60;99.90;;;;;;5028948;28;20179;-74
2021/12/20 00:45:27;;;;;;;16.02;7.97;;;-1.70;99.90;;;;;;5028899;28;20158;-73
2021/12/20 00:47:53;;;;;;;14.25;7.38;;;-1.80;99.90;;;;;;5028903;28;20222;-73
2021/12/20 00:50:22;;;;;;;11.88;7.20;;;-1.90;99.90;;;;;;5011067;28;20699;-73
2021/12/20 00:52:49;;;;;;;15.05;6.78;;;-1.90;99.90;;;;;;5028828;28;20157;-73
2021/12/20 00:55:17;;;;;;;11.63;6.82;;;-2.00;99.90;;;;;;5028755;28;20178;-73
2021/12/20 00:57:44;;;;;;;17.30;7.35;;;-1.90;99.90;;;;;;5030227;28;20201;-73
2021/12/20 01:00:13;;;;;;;11.32;6.53;;;-1.90;99.90;;;;;;5032295;28;20264;-73
2021/12/20 01:02:40;;;;;;;17.23;7.60;;;-1.90;99.90;;;;;;5032355;28;20162;-73
2021/12/20 01:05:06;;;;;;;9.13;6.28;;;-2.10;99.90;;;;;;5032342;28;20161;-73
2021/12/20 01:07:32;;;;;;;14.98;7.55;;;-2.10;99.90;;;;;;5032272;28;20243;-73
2021/12/20 01:10:02;;;;;;;14.93;6.97;;;-1.90;99.90;;;;;;5032148;28;20578;-73
2021/12/20 01:12:33;;;;;;;14.43;6.93;;;-1.90;99.90;;;;;;5032160;28;20209;-73
2021/12/20 01:15:01;;;;;;;14.07;7.45;;;-1.90;99.90;;;;;;5014389;28;20202;-73
2021/12/20 01:17:29;;;;;;;14.07;8.88;;;-1.60;99.90;;;;;;5032166;28;20161;-73
2021/12/20 01:19:55;;;;;;;12.73;7.53;;;-1.60;99.90;;;;;;5031948;28;20208;-73
2021/12/20 01:22:21;;;;;;;17.02;6.95;;;-1.50;99.90;;;;;;5032121;28;20163;-73
2021/12/20 01:24:47;;;;;;;13.20;7.10;;;-1.20;99.90;;;;;;5014232;28;20174;-73
2021/12/20 01:27:13;;;;;;;13.10;6.68;;;-1.10;99.90;;;;;;5031953;28;20174;-73
2021/12/20 01:29:39;;;;;;;14.10;7.78;;;-1.10;99.90;;;;;;5013922;28;20209;-73
2021/12/20 01:32:05;;;;;;;15.77;8.15;;;-1.20;99.90;;;;;;5031926;28;20166;-73
2021/12/20 01:34:31;;;;;;;15.63;7.63;;;-1.30;99.90;;;;;;5031815;28;20164;-73
2021/12/20 01:36:57;;;;;;;19.25;8.18;;;-1.40;99.90;;;;;;5031699;28;20163;-73
2021/12/20 01:39:23;;;;;;;10.77;6.50;;;-1.50;99.90;;;;;;5031613;28;20194;-73
2021/12/20 01:41:52;;;;;;;13.65;6.22;;;-1.50;99.90;;;;;;5031606;28;20185;-73
2021/12/20 01:44:18;;;;;;;16.95;8.70;;;-1.50;99.90;;;;;;5031709;28;20158;-73
2021/12/20 01:46:45;;;;;;;13.05;6.32;;;-1.40;99.90;;;;;;5031596;28;20169;-73
2021/12/20 01:49:14;;;;;;;14.93;7.25;;;-1.30;99.90;;;;;;5013771;28;20202;-73
2021/12/20 01:54:16;;;;;;;14.20;7.70;;;-1.40;99.90;;;;;;5031404;28;20623;-73
2021/12/20 01:56:45;;;;;;;15.75;7.25;;;-1.30;99.90;;;;;;5031481;28;20185;-73
2021/12/20 01:59:11;;;;;;;15.05;7.65;;;-1.40;99.90;;;;;;5031037;28;20233;-73
2021/12/20 02:01:38;;;;;;;13.63;7.78;;;-1.40;99.90;;;;;;5013601;28;20296;-73
2021/12/20 02:04:07;;;;;;;31.23;7.80;;;-1.40;99.90;;;;;;5031220;28;20642;-73
2021/12/20 02:06:38;;;;;;;15.52;7.70;;;-1.50;99.90;;;;;;5031093;28;20174;-73
2021/12/20 02:09:10;;;;;;;13.80;7.30;;;-1.50;99.90;;;;;;5030689;28;20208;-72
2021/12/20 02:11:41;;;;;;;17.88;6.97;;;-1.60;99.90;;;;;;5013362;28;20170;-73
2021/12/20 02:14:09;;;;;;;16.38;7.47;;;-1.60;99.90;;;;;;5031027;28;20636;-73
2021/12/20 02:16:38;;;;;;;16.00;10.23;;;-1.60;99.90;;;;;;5013289;28;20168;-73
2021/12/20 02:19:09;;;;;;;15.30;6.82;;;-1.70;99.90;;;;;;5030892;28;20181;-73
2021/12/20 02:21:36;;;;;;;13.93;8.32;;;-1.70;99.90;;;;;;5031037;28;20200;-73
2021/12/20 02:24:03;;;;;;;13.85;7.72;;;-1.30;99.90;;;;;;5030895;28;20158;-73
2021/12/20 02:26:29;;;;;;;15.00;8.45;;;-1.40;99.90;;;;;;5030826;28;20647;-73
2021/12/20 02:29:00;;;;;;;17.58;9.98;;;-1.50;99.90;;;;;;5030709;28;20186;-73
2021/12/20 02:37:18;;;;;;;14.10;7.55;;;-1.30;99.90;;;;;;5030654;28;20169;-73
2021/12/20 02:39:44;;;;;;;14.65;9.77;;;-1.20;99.90;;;;;;5030380;28;20244;-72
2021/12/20 02:42:14;;;;;;;18.80;9.52;;;-1.20;99.90;;;;;;5012821;28;20178;-73
2021/12/20 02:45:03;;;;;;;20.00;8.48;;;-1.10;99.90;;;;;;5030446;28;20176;-73
2021/12/20 02:47:29;;;;;;;17.88;7.72;;;-1.20;99.90;;;;;;5030558;28;20162;-72
2021/12/20 02:49:57;;;;;;;18.30;9.00;;;-1.30;99.90;;;;;;5030233;28;20265;-72
2021/12/20 02:52:24;;;;;;;14.15;7.28;;;-1.40;99.90;;;;;;5030323;28;20166;-73
2021/12/20 02:54:49;;;;;;;16.25;8.13;;;-1.40;99.90;;;;;;5030284;28;20226;-72
2021/12/20 02:57:16;;;;;;;20.83;10.02;;;-1.40;99.90;;;;;;5012494;28;20170;-74
2021/12/20 02:59:42;;;;;;;15.10;8.18;;;-1.40;99.90;;;;;;5029920;28;20256;-75
2021/12/20 03:02:10;;;;;;;16.50;8.00;;;-1.40;99.90;;;;;;5030156;28;20167;-73
2021/12/20 03:04:37;;;;;;;14.05;8.65;;;-1.40;99.90;;;;;;5030104;28;20193;-73
2021/12/20 03:07:08;;;;;;;16.05;9.38;;;-1.40;99.90;;;;;;5030072;28;20253;-73
2021/12/20 03:09:39;;;;;;;15.32;7.72;;;-1.40;99.90;;;;;;5029892;28;20202;-73
2021/12/20 03:12:09;;;;;;;17.50;8.80;;;-1.50;99.90;;;;;;5030234;28;20162;-73
2021/12/20 03:14:43;;;;;;;14.25;8.23;;;-1.20;99.90;;;;;;5029946;28;20169;-72
2021/12/20 03:17:10;;;;;;;14.55;7.40;;;-1.20;99.90;;;;;;5029877;28;20158;-73
2021/12/20 03:19:36;;;;;;;16.58;8.38;;;-1.20;99.90;;;;;;5011861;28;20641;-73
2021/12/20 03:22:04;;;;;;;13.88;7.82;;;-1.20;99.90;;;;;;5029594;28;20163;-72
2021/12/20 03:24:31;;;;;;;19.95;8.05;;;-1.20;99.90;;;;;;5029655;28;20173;-73
2021/12/20 03:26:57;;;;;;;19.80;11.00;;;-1.30;99.90;;;;;;5012088;28;20236;-73
2021/12/20 03:29:23;;;;;;;15.45;8.18;;;-1.40;99.90;;;;;;5011833;28;20295;-73
2021/12/20 03:31:49;;;;;;;13.10;7.35;;;-1.40;99.90;;;;;;5029555;28;20155;-73
2021/12/20 03:34:16;;;;;;;13.55;8.55;;;-1.40;99.90;;;;;;5029559;28;20591;-73
2021/12/20 03:36:42;;;;;;;15.57;7.65;;;-1.40;99.90;;;;;;5029388;28;20162;-73
2021/12/20 03:39:09;;;;;;;12.52;7.00;;;-1.40;99.90;;;;;;5029131;28;20167;-72
2021/12/20 03:41:36;;;;;;;16.98;9.27;;;-1.50;99.90;;;;;;5011568;28;20178;-73
2021/12/20 03:44:04;;;;;;;12.65;7.35;;;-1.40;99.90;;;;;;5029451;28;20181;-73
2021/12/20 03:46:30;;;;;;;12.93;8.02;;;-1.40;99.90;;;;;;5029387;28;20684;-73
2021/12/20 03:48:56;;;;;;;14.70;7.22;;;-1.30;99.90;;;;;;5029316;28;20186;-73
2021/12/20 03:51:22;;;;;;;14.13;8.50;;;-1.30;99.90;;;;;;5029294;28;20193;-73
2021/12/20 03:53:48;;;;;;;16.00;8.10;;;-1.40;99.90;;;;;;5029217;28;20162;-73
2021/12/20 03:56:14;;;;;;;23.02;9.70;;;-1.30;99.90;;;;;;5029296;28;20639;-73
2021/12/20 03:58:41;;;;;;;14.88;8.25;;;-1.40;99.90;;;;;;5028865;28;20162;-73
2021/12/20 04:01:10;;;;;;;23.27;7.25;;;-1.40;99.90;;;;;;5029070;28;20671;-73
2021/12/20 04:03:37;;;;;;;14.77;7.65;;;-1.30;99.90;;;;;;5029347;28;20169;-73
2021/12/20 04:06:06;;;;;;;14.77;8.00;;;-1.30;99.90;;;;;;5029057;28;20177;-73
2021/12/20 04:08:33;;;;;;;13.00;7.10;;;-1.20;99.90;;;;;;5029116;28;20161;-73
2021/12/20 04:11:00;;;;;;;12.98;6.53;;;-1.20;99.90;;;;;;5011566;28;20190;-72
2021/12/20 04:13:27;;;;;;;13.90;8.25;;;-1.20;99.90;;;;;;5029170;28;20173;-73
2021/12/20 04:15:56;;;;;;;12.93;8.27;;;-1.20;99.90;;;;;;5011459;28;20193;-73
2021/12/20 04:18:23;;;;;;;21.27;7.85;;;-1.30;99.90;;;;;;5029133;28;20169;-73
2021/12/20 04:20:50;;;;;;;14.30;8.50;;;-1.40;99.90;;;;;;5028932;28;20185;-73
2021/12/20 04:23:16;;;;;;;13.05;6.78;;;-1.40;99.90;;;;;;5029058;28;20217;-73
2021/12/20 04:25:42;;;;;;;14.75;8.32;;;-1.50;99.90;;;;;;5028931;28;20150;-73
2021/12/20 04:28:09;;;;;;;14.98;7.28;;;-1.50;99.90;;;;;;5028794;28;20185;-73
2021/12/20 04:30:35;;;;;;;10.50;7.78;;;-1.60;99.90;;;;;;5011139;28;20296;-73
2021/12/20 04:33:02;;;;;;;13.07;7.88;;;-1.70;99.90;;;;;;5030916;28;20162;-73
2021/12/20 04:35:28;;;;;;;11.57;6.75;;;-1.70;99.90;;;;;;5032728;28;20158;-72
2021/12/20 04:37:54;;;;;;;15.05;6.80;;;-1.70;99.90;;;;;;5032728;28;20165;-73
2021/12/20 04:40:22;;;;;;;12.40;6.82;;;-1.70;99.90;;;;;;5032475;28;20204;-73
2021/12/20 04:42:53;;;;;;;12.73;8.80;;;-1.60;99.90;;;;;;5014890;28;20178;-73
2021/12/20 04:45:19;;;;;;;12.80;7.70;;;-1.60;99.90;;;;;;5014906;28;20174;-73
2021/12/20 04:47:45;;;;;;;13.35;6.95;;;-1.50;99.90;;;;;;5032509;28;20162;-73
2021/12/20 04:50:12;;;;;;;13.60;7.35;;;-1.50;99.90;;;;;;5032289;28;20233;-73
2021/12/20 04:52:40;;;;;;;15.48;8.40;;;-1.50;99.90;;;;;;5032489;28;20158;-73
2021/12/20 04:55:07;;;;;;;21.67;7.90;;;-1.50;99.90;;;;;;5032440;28;20306;-73
2021/12/20 04:57:33;;;;;;;12.02;7.30;;;-1.40;99.90;;;;;;5014516;28;20184;-73
2021/12/20 04:59:59;;;;;;;14.27;8.57;;;-1.40;99.90;;;;;;5032140;28;20229;-73
2021/12/20 05:02:25;;;;;;;18.98;9.25;;;-1.30;99.90;;;;;;5032231;28;20162;-74
2021/12/20 05:04:51;;;;;;;13.88;8.10;;;-1.30;99.90;;;;;;5032265;28;20161;-74
2021/12/20 05:07:17;;;;;;;15.63;7.78;;;-1.40;99.90;;;;;;5032290;28;20162;-73
2021/12/20 05:09:43;;;;;;;17.38;7.93;;;-1.40;99.90;;;;;;5031729;28;20232;-73
2021/12/20 05:12:14;;;;;;;16.52;9.52;;;-1.50;99.90;;;;;;5032014;28;20612;-73
2021/12/20 05:14:44;;;;;;;16.50;8.50;;;-1.60;99.90;;;;;;5032128;28;20150;-73
2021/12/20 05:17:12;;;;;;;19.33;8.82;;;-1.70;99.90;;;;;;5032036;28;20163;-73
2021/12/20 05:19:40;;;;;;;21.85;8.18;;;-1.70;99.90;;;;;;5031660;28;20249;-73
2021/12/20 05:22:06;;;;;;;18.58;9.45;;;-1.70;99.90;;;;;;5031863;28;20166;-73
2021/12/20 05:24:32;;;;;;;19.98;8.73;;;-1.70;99.90;;;;;;5014123;28;20192;-73
2021/12/20 05:26:58;;;;;;;24.20;10.30;;;-1.70;99.90;;;;;;5031712;28;20150;-73
2021/12/20 05:29:25;;;;;;;26.88;11.40;;;-1.70;99.90;;;;;;5031641;28;20616;-74
2021/12/20 05:31:52;;;;;;;29.30;10.52;;;-1.70;99.90;;;;;;5031642;28;20157;-73
2021/12/20 05:34:19;;;;;;;16.52;8.77;;;-1.70;99.90;;;;;;5031546;28;20162;-73
2021/12/20 05:36:45;;;;;;;19.58;9.57;;;-1.70;99.90;;;;;;5031583;28;20166;-74
2021/12/20 05:39:12;;;;;;;18.70;8.98;;;-1.60;99.90;;;;;;5031370;28;20166;-73
2021/12/20 05:41:38;;;;;;;22.38;9.68;;;-1.70;99.90;;;;;;5031594;28;20525;-73
2021/12/20 05:44:05;;;;;;;17.73;9.18;;;-1.70;99.90;;;;;;5013120;28;20178;-73
2021/12/20 05:46:31;;;;;;;19.95;9.20;;;-1.60;99.90;;;;;;5031254;28;20245;-73
2021/12/20 05:48:57;;;;;;;18.35;8.30;;;-1.70;99.90;;;;;;5031061;28;20192;-73
2021/12/20 05:51:23;;;;;;;14.32;7.82;;;-1.80;99.90;;;;;;5013346;28;20225;-73
2021/12/20 05:53:49;;;;;;;16.27;7.97;;;-1.80;99.90;;;;;;5013463;28;20257;-73
2021/12/20 05:56:15;;;;;;;14.38;9.00;;;-1.90;99.90;;;;;;5013665;28;20205;-73
2021/12/20 05:58:41;;;;;;;14.05;8.43;;;-2.00;99.90;;;;;;5031018;28;20188;-73
2021/12/20 06:01:07;;;;;;;14.27;8.55;;;-2.10;99.90;;;;;;5030854;28;20193;-73
2021/12/20 06:03:33;;;;;;;22.45;8.20;;;-2.00;99.90;;;;;;5013423;28;20204;-73
2021/12/20 06:05:59;;;;;;;10.13;4.72;;;-2.10;99.90;;;;;;5030861;28;20221;-73
2021/12/20 06:08:25;;;;;;;7.40;3.78;;;-1.10;99.90;;;;;;5030467;28;20162;-73
2021/12/20 06:10:51;;;;;;;2.97;1.25;;;-0.30;99.90;;;;;;5030640;28;20198;-73
2021/12/20 06:13:17;;;;;;;3.58;0.77;;;1.80;99.90;;;;;;5012748;28;20174;-74
2021/12/20 06:15:43;;;;;;;0.68;0.68;;;3.30;99.90;;;;;;5012910;28;20181;-74
2021/12/20 06:18:09;;;;;;;0.68;0.63;;;3.40;99.90;;;;;;5030642;28;20162;-73
2021/12/20 06:20:35;;;;;;;0.15;0.15;;;3.40;99.90;;;;;;5012924;28;20198;-73
2021/12/20 06:23:01;;;;;;;2.17;0.57;;;3.30;99.90;;;;;;5030382;28;20161;-73
2021/12/20 06:25:27;;;;;;;1.27;0.40;;;3.50;99.90;;;;;;5030681;28;20162;-74
2021/12/20 06:27:53;;;;;;;0.50;0.32;;;3.40;99.90;;;;;;5030095;28;20166;-75
2021/12/20 06:30:19;;;;;;;0.35;0.30;;;3.40;99.90;;;;;;5012369;28;20209;-74
2021/12/20 06:32:46;;;;;;;1.75;0.50;;;3.50;99.90;;;;;;5012431;28;20174;-74
2021/12/20 06:35:15;;;;;;;10.00;0.43;;;3.40;99.90;;;;;;5030086;28;20151;-74
2021/12/20 06:37:47;;;;;;;0.45;0.25;;;3.90;99.90;;;;;;5030455;28;20154;-74
2021/12/20 06:40:14;;;;;;;2.38;0.20;;;3.90;99.90;;;;;;5029731;28;20200;-74
2021/12/20 06:42:40;;;;;;;0.28;0.20;;;4.00;99.90;;;;;;5030198;28;20162;-74
2021/12/20 06:45:07;;;;;;;0.65;0.28;;;3.90;99.90;;;;;;5030085;28;20173;-74
2021/12/20 06:47:35;;;;;;;0.30;0.30;;;4.10;99.90;;;;;;5030118;28;20174;-75
2021/12/20 06:50:03;;;;;;;0.75;0.30;;;4.30;99.90;;;;;;5011992;28;20237;-74
2021/12/20 06:52:29;;;;;;;0.20;0.20;;;4.20;99.90;;;;;;5012565;28;20185;-74
2021/12/20 06:54:55;;;;;;;0.30;0.20;;;4.30;99.90;;;;;;5029113;28;20159;-75
2021/12/20 06:57:21;;;;;;;0.25;0.25;;;4.20;99.90;;;;;;5011748;28;20260;-75
2021/12/20 06:59:47;;;;;;;0.22;0.22;;;4.10;99.90;;;;;;5031206;28;20763;-75
2021/12/20 07:02:14;;;;;;;0.10;0.10;;;4.30;99.90;;;;;;5049592;28;20176;-75
2021/12/20 07:04:40;;;;;;;0.38;0.30;;;4.60;99.90;;;;;;5049698;28;20176;-75
2021/12/20 07:07:06;;;;;;;2.33;0.50;;;4.60;99.90;;;;;;5049297;28;20241;-74
2021/12/20 07:09:32;;;;;;;0.20;0.20;;;4.50;99.90;;;;;;5049534;28;20209;-74
2021/12/20 07:11:58;;;;;;;0.30;0.20;;;4.50;99.90;;;;;;5048218;28;20173;-75
2021/12/20 07:14:26;;;;;;;0.52;0.35;;;4.50;99.90;;;;;;5049167;28;20169;-75
2021/12/20 07:16:54;;;;;;;0.10;0.10;;;4.60;99.90;;;;;;5049092;28;20150;-75
2021/12/20 07:19:20;;;;;;;0.50;0.40;;;5.00;99.90;;;;;;5049209;28;20154;-75
2021/12/20 07:21:46;;;;;;;1.27;0.40;;;4.90;99.90;;;;;;5049342;28;20173;-75
2021/12/20 07:24:11;;;;;;;0.30;0.20;;;4.80;99.90;;;;;;5049537;28;20168;-75
2021/12/20 07:26:37;;;;;;;0.45;0.22;;;5.20;99.90;;;;;;5047965;28;20165;-75
2021/12/20 07:29:05;;;;;;;1.25;0.52;;;5.10;99.90;;;;;;5048856;28;20252;-75
2021/12/20 07:31:31;;;;;;;0.47;0.35;;;4.70;99.90;;;;;;5048881;28;20185;-75
2021/12/20 07:33:56;;;;;;;0.13;0.13;;;4.80;99.90;;;;;;5049180;28;20192;-75
2021/12/20 07:36:23;;;;;;;0.40;0.30;;;5.10;99.90;;;;;;5049079;28;20160;-76
2021/12/20 07:38:50;;;;;;;2.10;0.80;;;4.90;99.90;;;;;;5049233;28;20165;-76
2021/12/20 07:41:23;;;;;;;0.90;0.80;;;4.70;99.90;;;;;;5048580;28;20224;-76
2021/12/20 07:43:50;;;;;;;0.55;0.30;;;4.90;99.90;;;;;;5047996;28;20168;-75
2021/12/20 07:46:18;;;;;;;0.60;0.43;;;5.20;99.90;;;;;;5048800;28;20185;-76
2021/12/20 07:48:44;;;;;;;3.92;0.50;;;5.10;99.90;;;;;;5049100;28;20209;-75
2021/12/20 07:51:10;;;;;;;2.75;1.17;;;5.00;99.90;;;;;;5049079;28;20165;-75
2021/12/20 07:53:36;;;;;;;0.75;0.65;;;5.10;99.90;;;;;;5049029;28;20177;-75
2021/12/20 07:56:03;;;;;;;0.50;0.30;;;5.20;99.90;;;;;;5048828;28;20192;-75
2021/12/20 07:58:28;;;;;;;0.40;0.30;;;5.30;99.90;;;;;;5047108;28;20173;-75
2021/12/20 08:00:55;;;;;;;3.17;0.85;;;5.50;99.90;;;;;;5029099;28;20158;-76
2021/12/20 08:03:21;;;;;;;0.85;0.85;;;6.90;99.90;;;;;;5028807;28;20634;-76
2021/12/20 08:05:47;;;;;;;0.55;0.55;;;7.60;99.90;;;;;;5029048;28;20159;-76
2021/12/20 08:08:13;;;;;;;1.02;0.30;;;7.10;99.90;;;;;;5032975;28;20167;-77
2021/12/20 08:10:39;;;;;;;1.10;0.82;;;8.00;99.90;;;;;;5028148;28;20667;-76
2021/12/20 08:13:05;;;;;;;1.33;0.60;;;9.10;99.90;;;;;;5031751;28;20174;-76
2021/12/20 08:15:31;;;;;;;1.90;0.43;;;10.80;99.90;;;;;;5032338;28;20169;-75
2021/12/20 08:17:57;;;;;;;7.85;1.55;;;11.90;99.90;;;;;;5032181;28;20184;-75
2021/12/20 08:20:23;;;;;;;3.30;1.75;;;11.30;99.90;;;;;;5032532;28;20220;-75
2021/12/20 08:22:49;;;;;;;2.88;1.50;;;12.60;99.90;;;;;;5032551;28;20169;-76
2021/12/20 08:25:18;;;;;;;3.95;1.63;;;14.10;99.90;;;;;;5032476;28;20162;-77
2021/12/20 08:27:45;;;;;;;1.58;0.90;;;14.60;99.90;;;;;;5032562;28;20228;-75
2021/12/20 08:30:12;;;;;;;2.30;0.35;;;12.60;99.90;;;;;;4996348;28;20217;-76
2021/12/20 08:32:39;;;;;;;5.18;1.38;;;12.00;99.90;;;;;;5012856;28;20175;-76
2021/12/20 08:35:07;;;;;;;1.20;0.82;;;11.40;99.90;;;;;;5012898;28;20167;-76
2021/12/20 08:37:33;;;;;;;1.95;0.90;;;11.40;99.90;;;;;;5024835;28;20395;-75
2021/12/20 08:39:59;;;;;;;2.30;0.50;;;11.10;99.90;;;;;;5014657;28;20170;-75
2021/12/20 08:42:25;;;;;;;2.75;0.75;;;11.30;99.90;;;;;;5032219;28;20169;-75
2021/12/20 08:44:51;;;;;;;0.73;0.30;;;12.50;99.90;;;;;;5032296;28;20236;-76
2021/12/20 08:47:17;;;;;;;2.00;0.60;;;12.60;99.90;;;;;;5014658;28;20225;-76
2021/12/20 08:49:43;;;;;;;1.33;0.60;;;11.40;99.90;;;;;;5031912;28;20281;-75
2021/12/20 08:52:11;;;;;;;4.22;0.45;;;10.90;99.90;;;;;;5032219;28;20162;-75
2021/12/20 08:54:37;;;;;;;3.13;0.50;;;11.30;99.90;;;;;;5032164;28;20165;-75
2021/12/20 08:57:03;;;;;;;0.60;0.40;;;11.80;99.90;;;;;;5032124;28;20197;-75
2021/12/20 08:59:31;;;;;;;1.85;0.40;;;11.00;99.90;;;;;;5031829;28;20237;-76
2021/12/20 09:01:59;;;;;;;0.52;0.30;;;11.20;99.90;;;;;;5031658;28;20170;-75
2021/12/20 09:04:25;;;;;;;1.35;0.40;;;10.70;99.90;;;;;;5014091;28;20173;-74
2021/12/20 09:06:51;;;;;;;0.75;0.20;;;10.60;99.90;;;;;;5014301;28;20293;-75
2021/12/20 09:09:17;;;;;;;0.52;0.20;;;11.30;99.90;;;;;;5031837;28;20194;-76
2021/12/20 09:11:43;;;;;;;0.85;0.38;;;11.10;99.90;;;;;;5031669;28;20222;-76
2021/12/20 09:14:10;;;;;;;3.17;0.60;;;11.10;99.90;;;;;;5031825;28;20166;-76
2021/12/20 09:16:36;;;;;;;0.38;0.30;;;11.00;99.90;;;;;;5013924;28;20209;-77
2021/12/20 09:19:03;;;;;;;0.93;0.38;;;10.40;99.90;;;;;;5030923;28;20186;-76
2021/12/20 09:21:29;;;;;;;1.60;0.43;;;10.30;99.90;;;;;;5031722;28;20158;-75
2021/12/20 09:23:56;;;;;;;4.80;0.50;;;11.30;99.90;;;;;;5013642;28;20178;-75
2021/12/20 09:26:22;;;;;;;0.60;0.40;;;10.60;99.90;;;;;;5031673;28;20197;-75
2021/12/20 09:28:48;;;;;;;1.63;0.30;;;11.00;99.90;;;;;;5013563;28;20296;-75
2021/12/20 09:31:14;;;;;;;1.88;0.45;;;11.50;99.90;;;;;;5013787;28;20170;-75
2021/12/20 09:33:40;;;;;;;0.65;0.40;;;11.50;99.90;;;;;;5031381;28;20158;-75
2021/12/20 09:36:07;;;;;;;1.27;0.32;;;12.70;99.90;;;;;;5013898;28;20232;-75
2021/12/20 09:38:33;;;;;;;0.20;0.20;;;11.70;99.90;;;;;;5031064;28;20159;-75
2021/12/20 09:43:47;;;;;;;0.95;0.17;;;11.50;99.90;;;;;;5019337;28;20201;-75
2021/12/20 09:46:17;;;;;;;0.55;0.30;;;11.30;99.90;;;;;;5002534;28;20189;-76
2021/12/20 09:48:49;;;;;;;0.38;0.20;;;11.20;99.90;;;;;;5004805;28;20197;-75
2021/12/20 09:51:17;;;;;;;0.32;0.22;;;9.70;99.90;;;;;;5031072;28;20154;-75
2021/12/20 09:53:43;;;;;;;0.22;0.10;;;9.30;99.90;;;;;;5009692;28;20167;-75
2021/12/20 09:56:10;;;;;;;2.97;0.30;;;9.10;99.90;;;;;;5030972;28;20204;-75
2021/12/20 09:58:38;;;;;;;0.22;0.20;;;9.40;99.90;;;;;;5030850;28;20154;-75
2021/12/20 10:01:07;;;;;;;0.75;0.40;;;9.30;99.90;;;;;;5013027;28;20199;-75
2021/12/20 10:03:34;;;;;;;1.27;0.17;;;9.20;99.90;;;;;;5013018;28;20363;-76
2021/12/20 10:06:00;;;;;;;3.35;0.65;;;9.00;99.90;;;;;;5017441;28;20173;-76
2021/12/20 10:08:32;;;;;;;1.65;0.20;;;9.50;99.90;;;;;;5010823;28;20187;-75
2021/12/20 10:11:05;;;;;;;0.77;0.30;;;9.40;99.90;;;;;;5011026;28;20147;-76
2021/12/20 10:13:36;;;;;;;3.22;0.30;;;9.80;99.90;;;;;;5010505;28;20650;-75
2021/12/20 10:16:13;;;;;;;0.10;0.10;;;9.50;99.90;;;;;;4993682;28;20170;-75
2021/12/20 10:18:39;;;;;;;1.83;0.85;;;9.90;99.90;;;;;;5007709;28;20159;-76
2021/12/20 10:21:06;;;;;;;0.20;0.20;;;10.40;99.90;;;;;;5007746;28;20246;-76
2021/12/20 10:23:39;;;;;;;0.10;0.10;;;9.40;99.90;;;;;;4991056;28;20178;-76
2021/12/20 10:26:41;;;;;;;0.90;0.30;;;10.30;99.90;;;;;;5008260;28;20159;-76
2021/12/20 10:29:19;;;;;;;2.65;0.65;;;11.10;99.90;;;;;;5008121;28;20181;-75
2021/12/20 10:31:46;;;;;;;0.50;0.25;;;12.00;99.90;;;;;;4990903;28;20190;-76
2021/12/20 10:34:13;;;;;;;5.10;0.52;;;12.10;99.90;;;;;;5010586;28;20179;-75
2021/12/20 10:36:55;;;;;;;1.63;0.30;;;12.00;99.90;;;;;;5010695;28;20186;-76
2021/12/20 10:39:48;;;;;;;3.25;0.57;;;11.10;99.90;;;;;;5010774;28;20159;-75
2021/12/20 10:42:29;;;;;;;1.52;0.10;;;10.70;99.90;;;;;;5010415;28;20197;-75
2021/12/20 10:45:12;;;;;;;0.10;0.10;;;10.60;99.90;;;;;;5010327;28;20163;-75
2021/12/20 10:47:39;;;;;;;1.38;0.68;;;11.20;99.90;;;;;;5010500;28;20287;-75
2021/12/20 10:50:32;;;;;;;0.77;0.47;;;11.50;99.90;;;;;;5010435;28;20217;-76
2021/12/20 10:53:26;;;;;;;0.95;0.20;;;11.70;99.90;;;;;;5010228;28;20278;-75
2021/12/20 10:55:54;;;;;;;0.95;0.30;;;12.30;99.90;;;;;;5010753;28;20165;-76
2021/12/20 10:58:36;;;;;;;1.30;0.45;;;12.40;99.20;;;;;;5010604;28;20165;-75
2021/12/20 11:01:05;;;;;;;1.02;0.55;;;11.70;99.90;;;;;;5010358;28;20202;-75
2021/12/20 11:03:40;;;;;;;1.00;0.52;;;11.70;99.90;;;;;;5010538;28;20162;-75
2021/12/20 11:09:05;;;;;;;0.40;0.38;;;12.20;97.60;;;;;;5029600;28;20169;-75
2021/12/20 11:11:34;;;;;;;1.08;0.45;;;10.40;99.50;;;;;;5029518;28;20197;-75
2021/12/20 11:14:02;;;;;;;0.40;0.30;;;11.20;99.90;;;;;;5029497;28;20167;-76
2021/12/20 11:16:36;;;;;;;1.55;0.73;;;11.80;98.30;;;;;;5011764;28;20177;-75
2021/12/20 11:19:15;;;;;;;2.25;0.47;;;10.80;98.80;;;;;;5029639;28;20192;-75
2021/12/20 11:21:53;;;;;;;4.05;0.43;;;10.50;99.50;;;;;;5029660;28;20284;-75
2021/12/20 11:24:49;;;;;;;0.35;0.35;;;11.00;99.90;;;;;;5011986;28;20170;-75
2021/12/20 11:27:39;;;;;;;1.55;0.20;;;12.30;98.90;;;;;;5017595;28;20197;-74
2021/12/20 11:30:12;;;;;;;0.68;0.43;;;10.90;97.10;;;;;;5028987;28;20245;-74
2021/12/20 11:32:39;;;;;;;1.15;0.40;;;10.30;98.00;;;;;;5029286;28;20189;-74
2021/12/20 11:35:06;;;;;;;1.02;0.45;;;9.80;98.40;;;;;;5029270;28;20197;-74
2021/12/20 11:37:33;;;;;;;0.25;0.25;;;10.30;98.10;;;;;;5029429;28;20162;-73
2021/12/20 11:40:02;;;;;;;1.55;0.40;;;10.80;98.90;;;;;;5029162;28;20201;-74
2021/12/20 11:42:28;;;;;;;2.17;0.20;;;11.80;97.90;;;;;;5029005;28;20217;-74
2021/12/20 11:44:57;;;;;;;10.48;0.75;;;12.70;96.60;;;;;;5029333;28;20173;-75
2021/12/20 11:47:31;;;;;;;0.57;0.47;;;12.10;96.40;;;;;;5029222;28;20168;-71
2021/12/20 11:50:11;;;;;;;1.67;0.25;;;11.60;96.70;;;;;;5029211;28;20192;-74
2021/12/20 11:52:39;;;;;;;0.30;0.30;;;11.20;96.20;;;;;;5029017;28;20596;-74
2021/12/20 11:55:14;;;;;;;1.60;0.50;;;10.50;97.20;;;;;;5028947;28;20162;-73
2021/12/20 11:57:43;;;;;;;1.50;0.50;;;10.40;96.80;;;;;;5029050;28;20157;-73
2021/12/20 12:00:28;;;;;;;0.93;0.40;;;10.60;97.60;;;;;;5028840;28;20241;-73
2021/12/20 12:02:58;;;;;;;1.85;0.20;;;9.90;97.40;;;;;;5029131;28;20165;-73
2021/12/20 12:05:57;;;;;;;1.67;0.40;;;10.10;97.90;;;;;;5021266;28;20174;-73
2021/12/20 12:08:34;;;;;;;3.05;0.75;;;11.60;95.90;;;;;;5009300;28;20199;-73
2021/12/20 12:11:09;;;;;;;2.45;0.68;;;10.90;95.00;;;;;;5009385;28;20198;-73
2021/12/20 12:14:01;;;;;;;0.30;0.30;;;9.70;96.50;;;;;;5009080;28;20228;-73
2021/12/20 12:16:54;;;;;;;1.10;0.40;;;9.10;96.50;;;;;;4995195;28;20523;-73
2021/12/20 12:19:43;;;;;;;1.27;0.63;;;9.40;97.10;;;;;;5009226;28;20202;-73
2021/12/20 12:22:27;;;;;;;0.32;0.30;;;9.10;96.80;;;;;;5009124;28;20194;-71
2021/12/20 12:24:55;;;;;;;1.40;0.30;;;9.60;97.40;;;;;;5009163;28;20170;-73
2021/12/20 12:27:22;;;;;;;6.78;0.57;;;9.60;96.50;;;;;;5009344;28;20243;-75
2021/12/20 12:30:10;;;;;;;0.45;0.43;;;9.90;97.20;;;;;;5009186;28;20218;-74
2021/12/20 12:32:46;;;;;;;0.85;0.80;;;9.00;97.40;;;;;;5008794;28;20226;-74
2021/12/20 12:35:39;;;;;;;0.95;0.60;;;8.40;97.90;;;;;;5009247;28;20162;-73
2021/12/20 12:38:31;;;;;;;1.17;0.75;;;8.10;97.60;;;;;;5008970;28;20159;-74
2021/12/20 12:41:09;;;;;;;2.25;1.42;;;7.80;97.90;;;;;;5009257;28;20163;-75
2021/12/20 12:43:56;;;;;;;3.22;1.63;;;7.80;98.10;;;;;;5009212;28;20165;-73
2021/12/20 12:46:41;;;;;;;1.60;0.50;;;7.60;98.40;;;;;;5008894;28;20159;-72
2021/12/20 12:49:22;;;;;;;0.65;0.50;;;7.50;98.20;;;;;;5008990;28;20186;-73
2021/12/20 12:52:08;;;;;;;2.60;0.50;;;7.50;98.50;;;;;;5008995;28;20198;-74
2021/12/20 12:54:36;;;;;;;0.95;0.57;;;7.60;98.90;;;;;;5011524;28;20155;-75
2021/12/20 12:57:10;;;;;;;1.70;0.90;;;7.60;97.40;;;;;;5012399;28;20178;-72
2021/12/20 12:59:42;;;;;;;0.85;0.77;;;7.50;98.20;;;;;;5021883;28;20229;-73
2021/12/20 13:02:19;;;;;;;1.05;0.50;;;7.40;97.40;;;;;;5031947;28;20201;-73
2021/12/20 13:04:49;;;;;;;1.23;0.50;;;7.30;98.30;;;;;;5032007;28;20176;-76
2021/12/20 13:07:20;;;;;;;2.08;1.10;;;7.30;98.20;;;;;;5032033;28;20162;-74
2021/12/20 13:09:48;;;;;;;3.72;1.85;;;7.40;98.50;;;;;;5031995;28;20185;-76
2021/12/20 13:12:30;;;;;;;1.90;0.55;;;7.30;98.70;;;;;;5014211;28;20210;-76